Terminal Aerodrome Forecast
Issued by NWS

Home | Current Version | Previous Version | Text Only | Print | Product List | Glossary On
Versions: 1 2 3 4 5 6 7 8 9 10 11 12 13 14 15 16 17 18 19 20 21 22 23 24 25 26
159
FTUS44 KMOB 140552
TAFBFM
TAF
KBFM 140552Z 1406/1506 02007KT P6SM SKC
     FM141500 09006KT P6SM SKC
     FM142100 13008KT P6SM SCT250
     FM150100 13006KT P6SM OVC050=

USA.gov is the U.S. government's official web portal to all federal, state and local government web resources and services.